Time;durP1;ratioP1;P1;durP2;ratioP2;P2;SDS_P1;SDS_P2;PMS_P1;PMS_P2;Temp;Humidity;BMP_temperature;BMP_pressure;BME280_temperature;BME280_humidity;BME280_pressure;Samples;Min_cycle;Max_cycle;Signal;HPM_P1;HPM_P2
2023/10/24 00:00:33;;;;;;;3.50;2.53;;;;;;;17.20;92.13;99498.41;5092410;28;20203;-65
2023/10/24 00:02:59;;;;;;;2.40;2.07;;;;;;;17.16;92.51;99492.53;5106287;28;20666;-65
2023/10/24 00:05:27;;;;;;;1.63;1.60;;;;;;;17.04;93.01;99476.84;5107911;27;20207;-65
2023/10/24 00:07:54;;;;;;;1.90;1.43;;;;;;;17.11;93.27;99488.56;5107370;28;20586;-65
2023/10/24 00:10:21;;;;;;;1.20;1.20;;;;;;;16.98;93.74;99466.84;5102582;27;20602;-65
2023/10/24 00:12:48;;;;;;;4.97;1.93;;;;;;;17.05;93.88;99487.16;5101490;28;20252;-65
2023/10/24 00:15:16;;;;;;;1.63;1.57;;;;;;;17.07;94.09;99494.81;5112049;28;20754;-65
2023/10/24 00:17:42;;;;;;;2.40;2.27;;;;;;;17.06;94.01;99483.63;5111146;28;20672;-65
2023/10/24 00:20:10;;;;;;;2.57;2.47;;;;;;;17.08;93.92;99480.94;5110705;28;20220;-65
2023/10/24 00:22:37;;;;;;;1.50;1.30;;;;;;;17.08;93.76;99479.19;5112334;27;20273;-65
2023/10/24 00:25:05;;;;;;;1.27;1.27;;;;;;;17.09;93.59;99477.44;5111959;27;20199;-65
2023/10/24 00:27:31;;;;;;;1.07;1.07;;;;;;;17.07;93.56;99477.53;5112026;28;20286;-65
2023/10/24 00:29:58;;;;;;;1.97;1.60;;;;;;;17.09;93.37;99482.63;5101292;28;20195;-65
2023/10/24 00:32:26;;;;;;;1.90;1.80;;;;;;;17.04;93.32;99466.50;5098622;27;20195;-65
2023/10/24 00:34:53;;;;;;;3.23;1.70;;;;;;;17.11;93.28;99480.78;5110511;28;20219;-65
2023/10/24 00:37:20;;;;;;;1.87;1.77;;;;;;;17.12;93.23;99477.28;5108382;28;20202;-65
2023/10/24 00:39:47;;;;;;;3.93;1.93;;;;;;;17.12;93.28;99482.47;5111559;28;20194;-65
2023/10/24 00:42:13;;;;;;;1.20;1.10;;;;;;;17.12;93.27;99477.28;5099923;28;20204;-65
2023/10/24 00:44:40;;;;;;;4.83;1.40;;;;;;;17.11;93.34;99478.19;5107102;27;20197;-65
2023/10/24 00:47:07;;;;;;;2.83;2.07;;;;;;;17.10;93.17;99474.75;5110343;28;20689;-65
2023/10/24 00:49:35;;;;;;;7.07;1.70;;;;;;;17.12;92.85;99477.28;5111163;28;20198;-65
2023/10/24 00:52:03;;;;;;;4.30;1.60;;;;;;;17.11;92.71;99475.59;5098188;28;20257;-65
2023/10/24 00:54:33;;;;;;;1.60;1.50;;;;;;;17.10;92.60;99473.91;5094215;28;20219;-65
2023/10/24 00:57:00;;;;;;;1.23;1.20;;;;;;;16.95;92.87;99454.06;5109524;28;20202;-65
2023/10/24 00:59:27;;;;;;;2.47;1.33;;;;;;;17.06;92.23;99481.03;5108953;28;20679;-65
2023/10/24 01:01:54;;;;;;;1.63;1.57;;;;;;;17.02;92.52;99470.94;5106713;28;20203;-65
2023/10/24 01:04:23;;;;;;;9.83;2.50;;;;;;;17.05;92.67;99476.78;5109944;28;20267;-65
2023/10/24 01:06:51;;;;;;;1.67;1.63;;;;;;;17.03;92.62;99470.00;5107726;28;20260;-66
2023/10/24 01:09:18;;;;;;;1.43;1.43;;;;;;;17.02;92.72;99470.94;5108609;28;20252;-65
2023/10/24 01:11:45;;;;;;;1.40;1.30;;;;;;;16.99;92.53;99471.09;5110208;28;20199;-65
2023/10/24 01:14:11;;;;;;;3.80;1.30;;;;;;;16.97;92.85;99473.75;5110218;28;20223;-65
2023/10/24 01:16:43;;;;;;;5.53;1.80;;;;;;;16.96;93.03;99466.94;5109414;27;20222;-65
2023/10/24 01:19:10;;;;;;;2.00;1.90;;;;;;;16.94;94.04;99468.75;5109962;28;20205;-65
2023/10/24 01:21:37;;;;;;;1.40;1.40;;;;;;;16.89;94.40;99455.25;5101825;28;20207;-66
2023/10/24 01:24:06;;;;;;;1.27;1.27;;;;;;;16.93;94.37;99463.69;5110516;28;20271;-65
2023/10/24 01:26:33;;;;;;;1.77;1.67;;;;;;;16.92;94.63;99465.44;5110535;28;20198;-65
2023/10/24 01:29:00;;;;;;;1.20;1.20;;;;;;;16.92;94.92;99464.59;5110642;28;20199;-66
2023/10/24 01:31:26;;;;;;;5.87;2.63;;;;;;;16.91;95.04;99466.34;5104979;28;20199;-65
2023/10/24 01:33:53;;;;;;;9.80;2.10;;;;;;;16.91;95.09;99468.09;5107605;28;21090;-65
2023/10/24 01:36:20;;;;;;;2.87;1.93;;;;;;;16.88;95.62;99465.66;5105816;28;20210;-65
2023/10/24 01:38:46;;;;;;;6.97;2.57;;;;;;;16.86;95.83;99463.19;5102242;28;20255;-65
2023/10/24 01:41:14;;;;;;;2.53;2.33;;;;;;;16.86;95.72;99462.34;5110324;28;20644;-65
2023/10/24 01:43:41;;;;;;;2.23;1.77;;;;;;;16.83;95.79;99462.50;5107362;28;20474;-65
2023/10/24 01:46:08;;;;;;;1.87;1.60;;;;;;;16.80;95.69;99460.94;5098508;28;20619;-65
2023/10/24 01:48:35;;;;;;;2.00;1.80;;;;;;;16.78;95.43;99461.00;5103817;28;20214;-65
2023/10/24 01:51:02;;;;;;;1.63;1.53;;;;;;;16.77;95.66;99464.50;5104497;28;20198;-65
2023/10/24 01:53:29;;;;;;;1.60;1.50;;;;;;;16.74;95.32;99456.88;5095482;28;20298;-65
2023/10/24 01:55:56;;;;;;;3.70;1.17;;;;;;;16.74;95.24;99469.84;5110160;28;20225;-65
2023/10/24 01:58:24;;;;;;;4.03;1.60;;;;;;;16.72;95.24;99466.50;5112962;28;20194;-65
2023/10/24 02:00:50;;;;;;;2.50;2.30;;;;;;;16.71;95.06;99467.41;5111647;28;20199;-65
2023/10/24 02:03:17;;;;;;;1.80;1.70;;;;;;;16.68;94.97;99477.94;5114262;28;20244;-65
2023/10/24 02:05:44;;;;;;;1.77;1.33;;;;;;;16.62;95.20;99478.28;5115965;27;21589;-65
2023/10/24 02:08:10;;;;;;;3.50;1.57;;;;;;;16.55;95.38;99476.91;5113976;27;20195;-65
2023/10/24 02:10:37;;;;;;;2.60;1.70;;;;;;;16.48;95.99;99475.53;5112034;28;20194;-65
2023/10/24 02:13:04;;;;;;;1.97;1.30;;;;;;;16.47;96.02;99466.13;5114223;28;20195;-65
2023/10/24 02:15:32;;;;;;;1.23;1.23;;;;;;;16.45;96.07;99465.34;5114414;28;20275;-65
2023/10/24 02:17:59;;;;;;;1.97;1.87;;;;;;;16.45;96.01;99475.69;5114218;28;20226;-65
2023/10/24 02:20:25;;;;;;;2.23;2.07;;;;;;;16.43;95.96;99472.38;5114209;28;20252;-65
2023/10/24 02:22:52;;;;;;;6.27;1.53;;;;;;;16.41;96.19;99471.63;5114063;28;20202;-65
2023/10/24 02:25:19;;;;;;;2.10;1.50;;;;;;;16.39;96.24;99480.38;5111773;28;20207;-65
2023/10/24 02:27:45;;;;;;;6.93;1.73;;;;;;;16.36;96.39;99483.13;5112760;27;20260;-66
2023/10/24 02:30:12;;;;;;;1.47;1.37;;;;;;;16.34;96.46;99484.94;5114259;28;20635;-66
2023/10/24 02:32:40;;;;;;;2.03;1.93;;;;;;;16.32;96.74;99484.22;5111821;28;20267;-66
2023/10/24 02:35:08;;;;;;;1.33;1.33;;;;;;;16.29;96.57;99485.19;5109586;27;20215;-66
2023/10/24 02:37:34;;;;;;;4.17;1.67;;;;;;;16.27;96.74;99487.88;5111457;28;20198;-66
2023/10/24 02:40:01;;;;;;;4.67;2.17;;;;;;;16.26;96.44;99487.94;5108227;27;20195;-66
2023/10/24 02:42:28;;;;;;;5.03;1.63;;;;;;;16.25;96.92;99489.69;5098426;28;20202;-66
2023/10/24 02:44:54;;;;;;;1.70;1.60;;;;;;;16.23;96.91;99503.63;5113938;28;20195;-66
2023/10/24 02:47:21;;;;;;;2.30;1.93;;;;;;;16.21;96.84;99495.94;5110834;27;20202;-66
2023/10/24 02:49:49;;;;;;;8.57;1.40;;;;;;;16.17;97.03;99496.16;5105197;27;20204;-66
2023/10/24 02:52:16;;;;;;;2.83;1.80;;;;;;;16.11;97.59;99499.91;5113250;28;20259;-66
2023/10/24 02:54:43;;;;;;;1.57;1.57;;;;;;;16.08;97.58;99496.66;5113691;28;20263;-66
2023/10/24 02:57:09;;;;;;;2.67;2.47;;;;;;;16.06;97.60;99495.88;5099749;28;20195;-66
2023/10/24 02:59:36;;;;;;;2.87;2.33;;;;;;;16.01;97.78;99497.88;5104644;28;20255;-66
2023/10/24 03:02:03;;;;;;;4.17;2.03;;;;;;;16.02;97.58;99494.38;5104442;28;20630;-66
2023/10/24 03:04:30;;;;;;;1.77;1.70;;;;;;;16.01;97.39;99490.09;5108235;27;20261;-66
2023/10/24 03:06:58;;;;;;;1.83;1.73;;;;;;;15.97;97.15;99491.16;5109965;28;20726;-66
2023/10/24 03:09:25;;;;;;;1.83;1.53;;;;;;;15.96;97.46;99486.94;5112219;28;20275;-66
2023/10/24 03:11:52;;;;;;;1.40;1.40;;;;;;;15.95;97.17;99490.41;5113019;28;20255;-66
2023/10/24 03:14:18;;;;;;;2.10;2.00;;;;;;;15.93;97.49;99485.31;5113042;28;20203;-66
2023/10/24 03:16:45;;;;;;;3.70;1.57;;;;;;;15.91;97.52;99486.31;5105969;27;20682;-66
2023/10/24 03:19:12;;;;;;;1.60;1.50;;;;;;;15.90;97.41;99489.81;5113489;27;20255;-65
2023/10/24 03:21:38;;;;;;;1.70;1.60;;;;;;;15.85;97.47;99489.22;5107088;27;20199;-66
2023/10/24 03:24:07;;;;;;;1.90;1.80;;;;;;;15.83;97.42;99483.28;5113377;27;20305;-66
2023/10/24 03:26:34;;;;;;;2.53;2.33;;;;;;;15.81;97.54;99485.09;5112698;28;20199;-66
2023/10/24 03:29:01;;;;;;;1.70;1.67;;;;;;;15.80;97.67;99486.03;5112830;28;20322;-66
2023/10/24 03:31:27;;;;;;;1.93;1.83;;;;;;;15.79;97.73;99494.69;5110816;27;20267;-66
2023/10/24 03:33:54;;;;;;;2.70;1.60;;;;;;;15.73;97.83;99491.47;5102868;27;20199;-66
2023/10/24 03:36:21;;;;;;;4.10;1.97;;;;;;;15.68;98.00;99497.78;5112493;27;20225;-66
2023/10/24 03:38:48;;;;;;;1.87;1.70;;;;;;;15.62;98.18;99493.78;5107333;28;20206;-66
2023/10/24 03:41:16;;;;;;;1.80;1.70;;;;;;;15.59;98.10;99501.69;5107083;27;20560;-66
2023/10/24 03:43:47;;;;;;;5.10;2.37;;;;;;;15.58;97.80;99500.00;5104344;28;20207;-66
2023/10/24 03:46:14;;;;;;;2.27;2.17;;;;;;;15.56;97.48;99501.81;5113366;27;20275;-66
2023/10/24 03:48:41;;;;;;;2.97;2.77;;;;;;;15.55;97.57;99502.72;5113093;27;20582;-66
2023/10/24 03:51:08;;;;;;;3.13;1.93;;;;;;;15.55;97.48;99512.22;5109552;28;20251;-66
2023/10/24 03:53:34;;;;;;;7.77;2.53;;;;;;;15.52;97.34;99508.06;5097337;28;20195;-65
2023/10/24 03:56:01;;;;;;;8.47;2.00;;;;;;;15.52;97.21;99509.78;5096883;28;20222;-66
2023/10/24 03:58:29;;;;;;;2.67;2.57;;;;;;;15.51;97.40;99506.38;5112044;28;20670;-66
2023/10/24 04:00:56;;;;;;;3.10;2.80;;;;;;;15.49;97.11;99502.19;5112218;28;20297;-66
2023/10/24 04:03:23;;;;;;;3.00;2.00;;;;;;;15.48;97.02;99501.34;5108997;27;20207;-66
2023/10/24 04:05:50;;;;;;;4.57;2.30;;;;;;;15.43;96.94;99497.28;5099775;27;20222;-66
2023/10/24 04:08:17;;;;;;;4.63;2.40;;;;;;;15.40;96.88;99508.63;5111488;28;20259;-66
2023/10/24 04:10:43;;;;;;;2.43;2.30;;;;;;;15.34;96.55;99503.75;5111747;28;20258;-66
2023/10/24 04:13:10;;;;;;;5.27;2.73;;;;;;;15.31;96.71;99513.38;5110689;28;20650;-65
2023/10/24 04:15:38;;;;;;;5.10;2.33;;;;;;;15.27;96.81;99507.53;5097707;28;20218;-65
2023/10/24 04:18:05;;;;;;;9.23;2.37;;;;;;;15.16;96.78;99504.59;5099689;28;20203;-66
2023/10/24 04:20:32;;;;;;;2.20;2.10;;;;;;;15.14;97.04;99501.25;5108293;28;20201;-66
2023/10/24 04:23:03;;;;;;;2.97;2.77;;;;;;;15.13;97.39;99504.75;5111058;28;20289;-66
2023/10/24 04:25:30;;;;;;;3.23;2.30;;;;;;;15.12;97.47;99508.25;5109500;27;20282;-66
2023/10/24 04:28:13;;;;;;;4.67;2.27;;;;;;;15.09;97.52;99508.38;5075475;28;20258;-66
2023/10/24 04:30:42;;;;;;;2.47;2.10;;;;;;;15.07;97.54;99510.19;5098722;28;20191;-65
2023/10/24 04:33:09;;;;;;;1.60;1.50;;;;;;;15.04;97.67;99516.34;5102738;28;20198;-66
2023/10/24 04:35:43;;;;;;;2.07;1.93;;;;;;;15.03;97.75;99513.81;5109802;27;20225;-65
2023/10/24 04:38:09;;;;;;;1.67;1.60;;;;;;;15.01;97.92;99516.50;5095926;28;20656;-66
2023/10/24 04:40:38;;;;;;;1.47;1.33;;;;;;;14.98;98.10;99510.63;5099021;28;20280;-66
2023/10/24 04:43:05;;;;;;;8.03;1.90;;;;;;;14.98;98.45;99526.13;5103521;27;20210;-66
2023/10/24 04:45:32;;;;;;;2.07;2.00;;;;;;;14.96;98.68;99530.53;5110099;27;20194;-65
2023/10/24 04:48:00;;;;;;;7.57;1.60;;;;;;;14.93;99.12;99535.81;5108298;28;20203;-65
2023/10/24 04:50:27;;;;;;;2.20;1.87;;;;;;;14.89;99.59;99536.88;5101240;28;20294;-66
2023/10/24 04:52:54;;;;;;;2.10;2.00;;;;;;;14.84;99.85;99536.22;5095384;28;20302;-65
2023/10/24 04:55:21;;;;;;;1.70;1.60;;;;;;;14.69;100.00;99525.72;5107700;28;20611;-65
2023/10/24 04:57:48;;;;;;;1.43;1.37;;;;;;;14.79;100.00;99545.94;5108658;28;20199;-65
2023/10/24 05:00:16;;;;;;;1.50;1.40;;;;;;;14.79;100.00;99551.09;5109031;28;20251;-65
2023/10/24 05:02:44;;;;;;;1.50;1.50;;;;;;;14.84;100.00;99552.56;5104976;28;20256;-66
2023/10/24 05:05:12;;;;;;;3.23;1.90;;;;;;;14.89;100.00;99562.69;5104080;28;20263;-65
2023/10/24 05:07:39;;;;;;;2.43;2.33;;;;;;;14.92;100.00;99562.53;5096047;28;20624;-63
2023/10/24 05:10:06;;;;;;;1.30;1.20;;;;;;;14.97;100.00;99569.16;5101269;27;20259;-63
2023/10/24 05:12:33;;;;;;;4.10;1.97;;;;;;;15.02;100.00;99576.72;5107825;27;20220;-64
2023/10/24 05:15:00;;;;;;;3.70;2.33;;;;;;;15.01;100.00;99578.47;5109830;27;20198;-65
2023/10/24 05:17:30;;;;;;;1.57;1.47;;;;;;;15.04;100.00;99583.47;5107118;28;20667;-65
2023/10/24 05:19:57;;;;;;;0.90;0.90;;;;;;;15.00;100.00;99588.84;5108646;28;20658;-66
2023/10/24 05:22:25;;;;;;;5.70;1.27;;;;;;;14.99;100.00;99589.78;5107698;27;20635;-66
2023/10/24 05:24:52;;;;;;;1.40;1.30;;;;;;;15.04;100.00;99592.97;5101863;28;20224;-65
2023/10/24 05:27:18;;;;;;;1.67;1.00;;;;;;;15.07;100.00;99600.56;5108042;28;20194;-66
2023/10/24 05:29:45;;;;;;;6.93;1.90;;;;;;;15.07;100.00;99601.41;5105650;28;20191;-66
2023/10/24 05:32:12;;;;;;;2.40;1.33;;;;;;;15.10;100.00;99605.59;5108965;28;20258;-66
2023/10/24 05:34:39;;;;;;;1.97;1.63;;;;;;;15.15;100.00;99608.81;5107277;28;20199;-65
2023/10/24 05:37:05;;;;;;;5.53;1.20;;;;;;;15.18;100.00;99611.25;5108798;28;20222;-65
2023/10/24 05:39:33;;;;;;;3.97;2.07;;;;;;;15.20;100.00;99615.44;5108441;28;20251;-65
2023/10/24 05:42:00;;;;;;;1.80;1.63;;;;;;;15.24;100.00;99622.16;5100217;28;20203;-65
2023/10/24 05:44:27;;;;;;;4.90;1.67;;;;;;;15.29;100.00;99621.94;5106979;28;20207;-65
2023/10/24 05:46:54;;;;;;;1.00;1.00;;;;;;;15.34;100.00;99624.31;5106221;28;20202;-65
2023/10/24 05:49:21;;;;;;;1.73;1.70;;;;;;;15.37;100.00;99625.00;5109348;28;20289;-65
2023/10/24 05:51:47;;;;;;;1.17;1.17;;;;;;;15.39;100.00;99635.25;5102730;28;20732;-65
2023/10/24 05:54:14;;;;;;;1.17;1.17;;;;;;;15.44;100.00;99628.16;5108259;28;20202;-65
2023/10/24 05:56:42;;;;;;;4.00;1.43;;;;;;;15.50;100.00;99633.91;5108587;28;20222;-65
2023/10/24 05:59:09;;;;;;;2.57;2.37;;;;;;;15.55;100.00;99631.94;5108935;28;20212;-65
2023/10/24 06:01:35;;;;;;;1.87;1.77;;;;;;;15.58;100.00;99631.78;5103928;28;20259;-66
2023/10/24 06:04:02;;;;;;;1.60;1.50;;;;;;;15.65;100.00;99638.34;5109481;28;20194;-66
2023/10/24 06:06:29;;;;;;;5.40;1.53;;;;;;;15.71;100.00;99627.72;5103805;28;20198;-66
2023/10/24 06:08:56;;;;;;;4.00;1.57;;;;;;;15.78;100.00;99643.78;5102615;28;20976;-66
2023/10/24 06:11:22;;;;;;;5.97;2.33;;;;;;;15.86;100.00;99646.00;5109530;28;20203;-66
2023/10/24 06:13:51;;;;;;;2.17;1.80;;;;;;;15.93;100.00;99642.22;5102139;28;20956;-65
2023/10/24 06:16:18;;;;;;;2.50;2.13;;;;;;;15.93;100.00;99642.22;5101795;28;20236;-65
2023/10/24 06:18:45;;;;;;;3.33;1.77;;;;;;;16.06;100.00;99648.44;5105233;28;20612;-65
2023/10/24 06:21:12;;;;;;;2.10;1.33;;;;;;;15.94;100.00;99618.00;5109644;28;20255;-65
2023/10/24 06:23:39;;;;;;;1.90;1.80;;;;;;;16.20;100.00;99640.88;5108432;28;20199;-65
2023/10/24 06:26:13;;;;;;;3.63;1.77;;;;;;;16.30;100.00;99636.91;5104794;28;20203;-65
2023/10/24 06:28:40;;;;;;;2.03;1.63;;;;;;;16.41;100.00;99645.00;5107175;28;20681;-65
2023/10/24 06:31:08;;;;;;;0.87;0.87;;;;;;;16.51;100.00;99638.41;5104903;28;20199;-65
2023/10/24 06:33:35;;;;;;;0.97;0.97;;;;;;;16.59;100.00;99638.91;5108111;28;20202;-65
2023/10/24 06:36:02;;;;;;;1.97;1.43;;;;;;;16.68;100.00;99637.59;5108303;28;20214;-65
2023/10/24 06:38:29;;;;;;;1.87;1.73;;;;;;;16.75;100.00;99639.81;5101310;28;20207;-65
2023/10/24 06:40:56;;;;;;;1.50;1.40;;;;;;;16.83;99.81;99630.81;5099554;28;20197;-65
2023/10/24 06:43:23;;;;;;;1.20;1.20;;;;;;;16.86;98.63;99615.09;5110154;28;20301;-65
2023/10/24 06:45:50;;;;;;;1.70;1.60;;;;;;;17.09;98.55;99638.06;5114846;27;20739;-65
2023/10/24 06:48:19;;;;;;;0.93;0.93;;;;;;;17.22;98.81;99633.91;5112283;27;20280;-65
2023/10/24 06:50:46;;;;;;;0.93;0.93;;;;;;;17.41;98.88;99634.56;5103676;27;20253;-65
2023/10/24 06:53:13;;;;;;;1.53;1.43;;;;;;;17.57;97.62;99630.25;5106227;28;20199;-65
2023/10/24 06:55:41;;;;;;;1.23;1.13;;;;;;;17.56;95.85;99579.31;5107283;28;20231;-65
2023/10/24 06:58:07;;;;;;;1.00;1.00;;;;;;;17.92;95.63;99619.66;5110495;28;20198;-65
2023/10/24 07:00:34;;;;;;;1.37;1.30;;;;;;;17.99;95.53;99621.84;5109358;28;20667;-65
2023/10/24 07:03:01;;;;;;;1.67;1.40;;;;;;;18.17;93.88;99622.53;5111477;27;20203;-65
2023/10/24 07:05:29;;;;;;;1.30;1.20;;;;;;;18.41;91.35;99608.13;5118493;27;20626;-65
2023/10/24 07:07:56;;;;;;;2.23;1.50;;;;;;;18.57;90.55;99619.31;5097494;27;20219;-65
2023/10/24 07:10:23;;;;;;;1.07;1.07;;;;;;;18.76;90.15;99619.88;5103712;27;20204;-65
2023/10/24 07:12:50;;;;;;;3.33;1.33;;;;;;;18.96;89.10;99613.50;5105787;27;20205;-65
2023/10/24 07:15:17;;;;;;;2.03;1.83;;;;;;;19.24;86.67;99604.81;5103827;28;20238;-65
2023/10/24 07:17:44;;;;;;;1.40;1.30;;;;;;;19.43;85.60;99600.16;5108022;27;20282;-66
2023/10/24 07:20:11;;;;;;;3.50;1.83;;;;;;;19.68;83.94;99605.47;5105175;27;20206;-66
2023/10/24 07:22:39;;;;;;;1.37;1.33;;;;;;;19.76;83.52;99607.59;5101611;28;20628;-66
2023/10/24 07:25:07;;;;;;;2.47;1.17;;;;;;;19.88;83.23;99604.19;5095422;28;20690;-67
2023/10/24 07:27:34;;;;;;;3.00;1.47;;;;;;;19.93;82.09;99605.53;5098385;28;20260;-66
2023/10/24 07:30:01;;;;;;;3.07;1.93;;;;;;;20.15;80.53;99604.16;5111109;28;20205;-66
2023/10/24 07:32:27;;;;;;;3.00;1.57;;;;;;;20.36;78.93;99607.94;5113316;28;20198;-67
2023/10/24 07:34:56;;;;;;;1.20;1.20;;;;;;;20.44;79.70;99597.88;5112764;28;20670;-66
2023/10/24 07:37:23;;;;;;;0.80;0.80;;;;;;;20.59;78.75;99603.81;5111810;28;20292;-67
2023/10/24 07:39:51;;;;;;;2.83;1.30;;;;;;;20.79;76.79;99596.31;5113346;27;20205;-67
2023/10/24 07:42:18;;;;;;;1.87;1.20;;;;;;;20.95;76.40;99588.25;5106840;27;20579;-67
2023/10/24 07:44:45;;;;;;;6.10;1.00;;;;;;;21.09;76.28;99593.38;5107177;28;20205;-67
2023/10/24 07:47:12;;;;;;;1.50;1.40;;;;;;;21.27;75.65;99586.00;5111047;28;20769;-67
2023/10/24 07:49:38;;;;;;;1.27;1.27;;;;;;;21.43;73.84;99576.16;5103737;28;20279;-67
2023/10/24 07:52:06;;;;;;;1.67;1.57;;;;;;;21.58;73.85;99584.66;5108244;28;20640;-67
2023/10/24 07:54:33;;;;;;;1.33;0.90;;;;;;;21.67;74.07;99574.41;5112441;27;20283;-67
2023/10/24 07:57:02;;;;;;;2.53;1.80;;;;;;;21.83;71.63;99584.53;5109727;28;20215;-67
2023/10/24 07:59:29;;;;;;;2.17;1.70;;;;;;;21.97;71.82;99587.81;5109693;27;20529;-67
2023/10/24 08:01:56;;;;;;;1.23;1.13;;;;;;;22.14;70.79;99583.13;5098933;28;20317;-67
2023/10/24 08:04:23;;;;;;;2.10;0.90;;;;;;;22.29;71.08;99571.56;5104835;28;20288;-67
2023/10/24 08:06:50;;;;;;;3.67;1.50;;;;;;;22.45;69.73;99577.28;5111623;28;20199;-67
2023/10/24 08:09:17;;;;;;;1.33;1.23;;;;;;;22.66;69.65;99574.81;5111856;28;20199;-67
2023/10/24 08:11:44;;;;;;;2.20;1.33;;;;;;;22.80;69.19;99567.59;5110496;28;20256;-67
2023/10/24 08:14:13;;;;;;;1.13;1.13;;;;;;;22.95;66.94;99566.38;5108159;28;20203;-67
2023/10/24 08:16:40;;;;;;;1.23;0.93;;;;;;;23.06;67.50;99560.31;5107981;28;20226;-67
2023/10/24 08:19:07;;;;;;;4.00;1.53;;;;;;;23.19;67.86;99558.41;5107656;28;20668;-67
2023/10/24 08:21:34;;;;;;;1.07;1.07;;;;;;;23.32;66.11;99563.47;5110716;28;20198;-67
2023/10/24 08:24:00;;;;;;;5.50;2.80;;;;;;;23.39;64.79;99548.97;5103482;28;20211;-66
2023/10/24 08:26:27;;;;;;;1.97;1.47;;;;;;;23.51;63.52;99551.44;5112105;28;20202;-67
2023/10/24 08:28:54;;;;;;;2.13;1.07;;;;;;;23.55;64.45;99549.41;5112098;28;20206;-67
2023/10/24 08:31:22;;;;;;;0.80;0.80;;;;;;;23.58;64.55;99532.63;5110591;28;20602;-66
2023/10/24 08:33:49;;;;;;;0.70;0.70;;;;;;;23.76;63.73;99536.34;5101030;27;20203;-66
2023/10/24 08:36:16;;;;;;;1.80;1.70;;;;;;;23.90;62.88;99547.34;5098526;28;20663;-65
2023/10/24 08:38:43;;;;;;;4.67;1.13;;;;;;;24.04;62.70;99541.78;5108818;28;20203;-64
2023/10/24 08:41:09;;;;;;;5.23;1.27;;;;;;;24.17;61.52;99543.44;5110488;27;20251;-66
2023/10/24 08:43:37;;;;;;;1.00;1.00;;;;;;;24.29;62.06;99545.84;5104043;28;20655;-66
2023/10/24 08:46:05;;;;;;;4.27;0.80;;;;;;;24.37;61.92;99537.31;5106144;28;20199;-65
2023/10/24 08:48:34;;;;;;;1.00;1.00;;;;;;;24.52;59.98;99543.91;5101502;28;20198;-66
2023/10/24 08:51:01;;;;;;;2.03;0.73;;;;;;;24.58;59.78;99540.75;5103977;28;20223;-66
2023/10/24 08:53:28;;;;;;;1.30;0.90;;;;;;;24.70;59.51;99547.56;5101252;27;20267;-65
2023/10/24 08:55:57;;;;;;;4.00;0.80;;;;;;;24.83;59.17;99540.31;5110714;28;20271;-66
2023/10/24 08:58:24;;;;;;;0.90;0.90;;;;;;;24.91;59.55;99540.47;5108009;28;20222;-65
2023/10/24 09:00:51;;;;;;;3.90;1.37;;;;;;;24.81;61.49;99510.75;5102275;28;20210;-67
2023/10/24 09:03:18;;;;;;;1.17;1.17;;;;;;;25.08;60.60;99539.00;5101006;28;20248;-66
2023/10/24 09:05:48;;;;;;;1.00;0.90;;;;;;;25.16;58.31;99536.56;5106729;28;20635;-66
2023/10/24 09:08:16;;;;;;;1.30;1.20;;;;;;;25.24;58.71;99531.44;5102936;28;20662;-66
2023/10/24 09:10:43;;;;;;;1.00;1.00;;;;;;;25.28;57.93;99530.22;5095767;28;20195;-66
2023/10/24 09:13:09;;;;;;;0.70;0.70;;;;;;;25.42;58.57;99526.38;5101414;27;20619;-66
2023/10/24 09:15:37;;;;;;;1.17;1.07;;;;;;;25.54;57.35;99535.78;5091067;28;20196;-66
2023/10/24 09:18:05;;;;;;;5.07;1.07;;;;;;;25.61;57.51;99521.16;5095176;28;20227;-66
2023/10/24 09:20:33;;;;;;;0.73;0.73;;;;;;;25.71;55.41;99522.00;5110479;28;20199;-66
2023/10/24 09:23:09;;;;;;;1.80;1.07;;;;;;;25.83;54.58;99514.78;5110317;28;20198;-66
2023/10/24 09:25:36;;;;;;;1.10;1.10;;;;;;;25.88;53.91;99512.56;5096569;28;20744;-66
2023/10/24 09:28:16;;;;;;;7.83;1.17;;;;;;;25.98;52.64;99508.94;5099880;28;20281;-66
2023/10/24 09:30:43;;;;;;;1.23;1.10;;;;;;;26.11;54.11;99506.00;5107081;27;20194;-70
2023/10/24 09:33:10;;;;;;;1.10;1.10;;;;;;;26.20;53.26;99509.63;5096215;27;20199;-67
2023/10/24 09:35:37;;;;;;;2.10;0.97;;;;;;;26.33;53.03;99499.63;5090679;28;20201;-67
2023/10/24 09:38:08;;;;;;;4.77;1.30;;;;;;;26.42;51.62;99496.13;5102775;28;20219;-66
2023/10/24 09:40:36;;;;;;;0.60;0.60;;;;;;;26.52;51.57;99487.25;5106736;28;20206;-67
2023/10/24 09:43:05;;;;;;;2.10;1.10;;;;;;;26.53;50.49;99472.28;5108684;28;20207;-67
2023/10/24 09:45:34;;;;;;;1.80;1.70;;;;;;;26.60;49.78;99475.97;5110069;28;20253;-67
2023/10/24 09:48:02;;;;;;;1.13;1.00;;;;;;;26.59;51.19;99476.97;5104016;28;20199;-66
2023/10/24 09:50:30;;;;;;;2.17;0.80;;;;;;;26.72;50.39;99472.19;5102825;28;20215;-66
2023/10/24 09:52:57;;;;;;;1.40;0.73;;;;;;;26.77;51.49;99466.47;5109979;28;20199;-66
2023/10/24 09:55:27;;;;;;;3.60;0.90;;;;;;;26.85;51.71;99462.16;5108043;28;20206;-66
2023/10/24 09:57:56;;;;;;;1.47;0.70;;;;;;;26.91;48.53;99458.13;5105087;28;20272;-66
2023/10/24 10:00:23;;;;;;;1.50;1.37;;;;;;;26.96;48.05;99447.97;5100724;28;20681;-66
2023/10/24 10:02:51;;;;;;;0.90;0.90;;;;;;;26.96;46.70;99453.25;5107581;28;20194;-66
2023/10/24 10:05:18;;;;;;;0.50;0.50;;;;;;;27.00;48.01;99444.91;5106571;28;20260;-66
2023/10/24 10:07:49;;;;;;;0.70;0.70;;;;;;;27.02;47.13;99437.69;5110236;28;20250;-66
2023/10/24 10:10:16;;;;;;;1.00;1.00;;;;;;;27.04;47.04;99443.63;5109267;28;20203;-66
2023/10/24 10:12:45;;;;;;;1.60;0.77;;;;;;;27.11;46.41;99441.22;5104153;28;20210;-67
2023/10/24 10:15:36;;;;;;;0.80;0.80;;;;;;;27.13;48.20;99442.75;5105601;28;20271;-65
2023/10/24 10:18:14;;;;;;;0.63;0.63;;;;;;;27.19;49.24;99443.09;5106152;28;20357;-66
2023/10/24 10:20:57;;;;;;;5.07;1.00;;;;;;;27.22;45.11;99429.63;5111909;27;20198;-67
2023/10/24 10:23:46;;;;;;;1.50;0.67;;;;;;;27.18;46.00;99430.91;5112316;27;20670;-64
2023/10/24 10:26:20;;;;;;;1.03;0.50;;;;;;;27.19;45.82;99422.88;5109310;27;20210;-64
2023/10/24 10:29:02;;;;;;;1.30;0.57;;;;;;;27.25;45.52;99426.69;5108838;28;20198;-63
2023/10/24 10:31:47;;;;;;;0.97;0.97;;;;;;;27.29;45.81;99422.78;5108827;28;20214;-65
2023/10/24 10:34:14;;;;;;;0.70;0.70;;;;;;;27.31;46.56;99420.81;5113401;27;20206;-66
2023/10/24 10:36:52;;;;;;;0.80;0.80;;;;;;;27.36;46.30;99423.84;5110506;27;20202;-67
2023/10/24 10:39:19;;;;;;;2.90;1.77;;;;;;;27.38;46.77;99421.88;5104421;28;20217;-67
2023/10/24 10:41:46;;;;;;;0.77;0.77;;;;;;;27.39;45.89;99413.84;5109311;27;20256;-67
2023/10/24 10:44:44;;;;;;;0.57;0.57;;;;;;;27.39;46.41;99402.47;5109652;27;20256;-67
2023/10/24 10:47:14;;;;;;;0.50;0.50;;;;;;;27.39;45.25;99394.59;5111830;28;20682;-67
2023/10/24 10:49:47;;;;;;;0.50;0.50;;;;;;;27.47;45.29;99407.81;5105817;28;20195;-65
2023/10/24 10:52:32;;;;;;;3.70;0.70;;;;;;;27.53;45.29;99399.31;5102213;28;20226;-65
2023/10/24 10:55:10;;;;;;;0.97;0.53;;;;;;;27.54;43.61;99395.72;5107653;27;20705;-65
2023/10/24 10:57:52;;;;;;;0.90;0.90;;;;;;;27.43;43.96;99394.13;5104758;28;20689;-68
2023/10/24 11:00:27;;;;;;;0.40;0.40;;;;;;;27.37;43.98;99393.88;5102975;27;20218;-67
2023/10/24 11:03:14;;;;;;;1.13;1.13;;;;;;;27.34;44.31;99387.13;5102554;27;20206;-67
2023/10/24 11:05:51;;;;;;;3.53;0.83;;;;;;;27.45;44.07;99386.09;5109782;28;20206;-67
2023/10/24 11:08:23;;;;;;;0.77;0.77;;;;;;;27.54;44.25;99380.72;5105122;27;20201;-67
2023/10/24 11:10:56;;;;;;;0.50;0.50;;;;;;;27.53;43.65;99383.50;5105220;28;20202;-68
2023/10/24 11:13:36;;;;;;;0.60;0.60;;;;;;;27.41;43.45;99377.66;5105370;28;20206;-67
2023/10/24 11:16:06;;;;;;;2.83;0.70;;;;;;;27.50;43.44;99370.66;5105536;28;20227;-67
2023/10/24 11:18:33;;;;;;;0.60;0.60;;;;;;;27.58;42.99;99371.56;5102756;28;20214;-67
2023/10/24 11:21:01;;;;;;;0.70;0.70;;;;;;;27.59;42.89;99364.47;5111543;28;20206;-67
2023/10/24 11:23:28;;;;;;;1.53;1.43;;;;;;;27.61;44.28;99363.34;5100782;28;20206;-67
2023/10/24 11:25:55;;;;;;;3.10;0.83;;;;;;;27.41;43.41;99358.38;5095713;28;20195;-67
2023/10/24 11:28:22;;;;;;;0.63;0.63;;;;;;;27.44;42.75;99353.66;5110439;28;20230;-67
2023/10/24 11:30:49;;;;;;;1.23;0.70;;;;;;;27.42;42.34;99352.97;5104749;28;20259;-68
2023/10/24 11:33:18;;;;;;;0.50;0.50;;;;;;;27.37;42.34;99357.03;5100368;28;20230;-67
2023/10/24 11:35:44;;;;;;;2.73;0.80;;;;;;;27.45;43.26;99351.88;5097008;28;20627;-67